createdAt,value
2022-09-24T00:01:29.124Z,13.15
2022-09-24T00:04:02.344Z,12.40
2022-09-24T00:06:30.767Z,11.68
2022-09-24T00:08:58.510Z,11.50
2022-09-24T00:11:28.756Z,10.82
2022-09-24T00:13:57.243Z,11.68
2022-09-24T00:16:26.398Z,11.68
2022-09-24T00:18:54.105Z,11.02
2022-09-24T00:21:26.919Z,11.13
2022-09-24T00:23:56.382Z,10.38
2022-09-24T00:26:41.748Z,11.18
2022-09-24T00:29:11.670Z,11.73
2022-09-24T00:31:38.839Z,11.07
2022-09-24T00:34:05.726Z,10.50
2022-09-24T00:36:32.957Z,10.73
2022-09-24T00:39:00.489Z,10.13
2022-09-24T00:41:30.279Z,10.77
2022-09-24T00:43:58.384Z,11.05
2022-09-24T00:46:31.800Z,10.25
2022-09-24T00:49:11.215Z,9.35
2022-09-24T00:51:38.517Z,9.88
2022-09-24T00:54:09.092Z,10.68
2022-09-24T00:56:38.349Z,10.10
2022-09-24T00:59:06.626Z,10.88
2022-09-24T01:01:33.829Z,10.25
2022-09-24T01:04:01.628Z,11.45
2022-09-24T01:06:28.640Z,11.20
2022-09-24T01:08:57.109Z,11.15
2022-09-24T01:11:45.157Z,11.00
2022-09-24T01:14:27.458Z,16.67
2022-09-24T01:16:59.265Z,14.38
2022-09-24T01:19:57.171Z,10.90
2022-09-24T01:22:36.204Z,11.13
2022-09-24T01:25:31.129Z,10.70
2022-09-24T01:28:04.902Z,11.35
2022-09-24T01:30:35.242Z,11.00
2022-09-24T01:33:03.840Z,10.57
2022-09-24T01:35:39.974Z,10.07
2022-09-24T01:38:18.442Z,9.85
2022-09-24T01:40:46.652Z,10.10
2022-09-24T01:43:15.439Z,10.52
2022-09-24T01:45:42.708Z,10.23
2022-09-24T01:48:09.866Z,10.52
2022-09-24T01:50:52.052Z,10.40
2022-09-24T01:53:21.737Z,10.80
2022-09-24T01:55:58.253Z,10.00
2022-09-24T01:58:31.395Z,10.18
2022-09-24T02:01:06.069Z,10.43
2022-09-24T02:03:37.057Z,9.88
2022-09-24T02:06:11.003Z,10.48
2022-09-24T02:08:40.717Z,11.07
2022-09-24T02:11:07.973Z,10.93
2022-09-24T02:13:39.666Z,10.93
2022-09-24T02:16:09.665Z,11.35
2022-09-24T02:18:40.243Z,10.85
2022-09-24T02:21:10.878Z,10.25
2022-09-24T02:23:41.904Z,11.13
2022-09-24T02:26:09.148Z,10.82
2022-09-24T02:28:36.004Z,10.90
2022-09-24T02:31:10.155Z,10.68
2022-09-24T02:33:57.733Z,11.00
2022-09-24T02:36:25.121Z,11.20
2022-09-24T02:38:52.978Z,11.00
2022-09-24T02:41:24.000Z,10.60
2022-09-24T02:43:51.693Z,11.18
2022-09-24T02:46:19.105Z,11.23
2022-09-24T02:48:46.163Z,11.75
2022-09-24T02:51:13.377Z,12.13
2022-09-24T02:53:40.185Z,11.82
2022-09-24T02:56:08.101Z,12.32
2022-09-24T02:58:37.385Z,12.63
2022-09-24T03:01:05.367Z,13.52
2022-09-24T03:03:32.679Z,12.75
2022-09-24T03:05:59.795Z,14.35
2022-09-24T03:08:27.199Z,14.20
2022-09-24T03:10:56.182Z,14.10
2022-09-24T03:13:23.695Z,16.35
2022-09-24T03:15:50.970Z,16.05
2022-09-24T03:21:15.008Z,18.10
2022-09-24T03:23:41.907Z,15.15
2022-09-24T03:26:09.150Z,14.40
2022-09-24T03:28:36.594Z,14.40
2022-09-24T03:31:04.201Z,13.57
2022-09-24T03:33:38.317Z,13.65
2022-09-24T03:36:07.983Z,13.20
2022-09-24T03:38:36.166Z,13.13
2022-09-24T03:41:03.966Z,12.48
2022-09-24T03:43:31.580Z,12.07
2022-09-24T03:45:58.432Z,11.82
2022-09-24T03:48:26.233Z,12.80
2022-09-24T03:50:54.328Z,12.65
2022-09-24T03:53:21.225Z,12.77
2022-09-24T03:55:58.751Z,13.93
2022-09-24T03:58:26.375Z,12.50
2022-09-24T04:00:54.056Z,14.10
2022-09-24T04:03:21.918Z,12.55
2022-09-24T04:05:51.360Z,14.10
2022-09-24T04:08:22.104Z,11.30
2022-09-24T04:10:49.919Z,11.82
2022-09-24T04:13:18.449Z,12.60
2022-09-24T04:15:45.994Z,12.00
2022-09-24T04:18:12.888Z,12.38
2022-09-24T04:20:40.027Z,11.70
2022-09-24T04:23:07.069Z,14.13
2022-09-24T04:25:34.355Z,12.70
2022-09-24T04:28:03.850Z,12.95
2022-09-24T04:30:31.783Z,11.30
2022-09-24T04:33:01.030Z,11.45
2022-09-24T04:35:30.164Z,11.13
2022-09-24T04:37:57.525Z,12.73
2022-09-24T04:40:24.467Z,12.27
2022-09-24T04:42:52.624Z,11.48
2022-09-24T04:45:20.350Z,11.82
2022-09-24T04:47:57.441Z,11.57
2022-09-24T04:50:27.359Z,11.95
2022-09-24T04:52:55.027Z,12.18
2022-09-24T04:55:23.226Z,11.90
2022-09-24T04:57:51.178Z,11.57
2022-09-24T05:00:20.637Z,12.75
2022-09-24T05:02:47.836Z,11.23
2022-09-24T05:05:15.217Z,12.02
2022-09-24T05:07:44.620Z,12.60
2022-09-24T05:10:11.531Z,11.57
2022-09-24T05:12:40.967Z,12.90
2022-09-24T05:15:08.261Z,12.40
2022-09-24T05:17:38.879Z,12.35
2022-09-24T05:20:07.511Z,12.15
2022-09-24T05:22:34.402Z,12.15
2022-09-24T05:25:01.249Z,12.38
2022-09-24T05:27:28.327Z,12.13
2022-09-24T05:29:56.148Z,12.07
2022-09-24T05:32:22.991Z,13.15
2022-09-24T05:34:51.093Z,12.95
2022-09-24T05:37:18.479Z,12.63
2022-09-24T05:39:45.461Z,12.18
2022-09-24T05:42:16.133Z,12.15
2022-09-24T05:44:46.414Z,12.95
2022-09-24T05:47:16.399Z,12.55
2022-09-24T05:49:43.228Z,11.38
2022-09-24T05:52:10.124Z,12.82
2022-09-24T05:54:37.163Z,11.90
2022-09-24T05:57:04.087Z,13.45
2022-09-24T05:59:31.071Z,11.35
2022-09-24T06:01:58.605Z,12.15
2022-09-24T06:04:25.514Z,12.52
2022-09-24T06:06:52.377Z,11.85
2022-09-24T06:09:19.562Z,11.98
2022-09-24T06:11:46.722Z,11.65
2022-09-24T06:14:15.074Z,11.77
2022-09-24T06:16:42.479Z,12.60
2022-09-24T06:19:09.436Z,12.57
2022-09-24T06:21:36.407Z,12.63
2022-09-24T06:24:03.551Z,11.35
2022-09-24T06:26:31.139Z,12.63
2022-09-24T06:29:03.709Z,12.23
2022-09-24T06:31:32.066Z,11.80
2022-09-24T06:33:59.189Z,11.73
2022-09-24T06:36:26.668Z,11.60
2022-09-24T06:38:53.960Z,11.63
2022-09-24T06:41:21.293Z,11.82
2022-09-24T06:43:48.217Z,11.23
2022-09-24T06:46:15.971Z,11.88
2022-09-24T06:48:43.011Z,11.70
2022-09-24T06:51:10.118Z,10.75
2022-09-24T06:53:37.509Z,11.40
2022-09-24T06:56:04.650Z,11.52
2022-09-24T06:58:31.879Z,11.80
2022-09-24T07:01:02.844Z,11.40
2022-09-24T07:03:32.142Z,11.40
2022-09-24T07:06:04.326Z,11.10
2022-09-24T07:08:32.017Z,10.48
2022-09-24T07:10:59.271Z,9.55
2022-09-24T07:13:26.365Z,10.57
2022-09-24T07:15:53.663Z,10.23
2022-09-24T07:18:20.905Z,9.63
2022-09-24T07:20:54.481Z,9.02
2022-09-24T07:23:22.400Z,9.85
2022-09-24T07:25:50.488Z,10.80
2022-09-24T07:28:18.860Z,8.85
2022-09-24T07:30:46.003Z,9.90
2022-09-24T07:33:12.954Z,9.25
2022-09-24T07:35:40.534Z,10.07
2022-09-24T07:38:12.212Z,9.52
2022-09-24T07:40:39.694Z,9.35
2022-09-24T07:43:12.431Z,8.63
2022-09-24T07:45:40.535Z,8.60
2022-09-24T07:48:08.225Z,8.45
2022-09-24T07:50:39.348Z,7.72
2022-09-24T07:53:06.988Z,8.27
2022-09-24T07:55:39.439Z,8.02
2022-09-24T07:58:13.829Z,7.85
2022-09-24T08:00:41.646Z,7.00
2022-09-24T08:03:08.484Z,7.40
2022-09-24T08:05:35.466Z,7.53
2022-09-24T08:08:02.547Z,7.63
2022-09-24T08:10:29.569Z,7.28
2022-09-24T08:12:59.505Z,7.28
2022-09-24T08:15:26.707Z,7.47
2022-09-24T08:17:53.579Z,6.70
2022-09-24T08:20:21.625Z,7.43
2022-09-24T08:22:48.760Z,6.10
2022-09-24T08:25:15.670Z,6.32
2022-09-24T08:27:42.609Z,6.30
2022-09-24T08:30:10.846Z,6.18
2022-09-24T08:32:37.757Z,6.13
2022-09-24T08:35:05.247Z,6.30
2022-09-24T08:37:32.808Z,6.03
2022-09-24T08:39:59.660Z,6.07
2022-09-24T08:42:44.191Z,5.10
2022-09-24T08:45:30.294Z,4.63
2022-09-24T08:48:20.312Z,4.78
2022-09-24T08:51:01.352Z,4.97
2022-09-24T08:54:00.151Z,4.40
2022-09-24T08:56:30.219Z,4.35
2022-09-24T08:59:01.256Z,4.28
2022-09-24T09:01:36.865Z,4.20
2022-09-24T09:04:41.665Z,3.90
2022-09-24T09:07:16.447Z,3.75
2022-09-24T09:10:01.443Z,4.38
2022-09-24T09:12:35.889Z,5.15
2022-09-24T09:15:07.180Z,4.38
2022-09-24T09:17:57.457Z,4.68
2022-09-24T09:20:32.166Z,4.65
2022-09-24T09:23:04.208Z,4.00
2022-09-24T09:25:34.683Z,3.45
2022-09-24T09:28:07.165Z,4.45
2022-09-24T09:30:59.918Z,3.47
2022-09-24T09:33:50.147Z,3.70
2022-09-24T09:36:16.987Z,3.70
2022-09-24T09:39:12.010Z,2.75
2022-09-24T09:41:49.406Z,2.80
2022-09-24T09:44:23.025Z,3.10
2022-09-24T09:46:54.321Z,3.05
2022-09-24T09:49:22.927Z,2.40
2022-09-24T09:51:49.930Z,2.80
2022-09-24T09:54:16.784Z,3.08
2022-09-24T09:56:49.095Z,2.58
2022-09-24T09:59:27.196Z,2.95
2022-09-24T10:01:57.824Z,2.90
2022-09-24T10:04:43.448Z,2.83
2022-09-24T10:07:12.366Z,3.28
2022-09-24T10:09:40.583Z,2.53
2022-09-24T10:12:22.323Z,2.70
2022-09-24T10:14:58.729Z,2.40
2022-09-24T10:17:29.384Z,2.88
2022-09-24T10:19:56.768Z,2.70
2022-09-24T10:22:25.313Z,2.45
2022-09-24T10:24:53.912Z,2.90
2022-09-24T10:27:34.321Z,2.97
2022-09-24T10:30:23.584Z,2.58
2022-09-24T10:32:57.346Z,2.65
2022-09-24T10:35:36.242Z,2.25
2022-09-24T10:38:15.804Z,2.35
2022-09-24T10:40:42.798Z,2.97
2022-09-24T10:43:21.239Z,2.83
2022-09-24T10:46:02.088Z,3.00
2022-09-24T10:48:38.504Z,3.15
2022-09-24T10:51:29.610Z,4.35
2022-09-24T10:54:22.431Z,3.35
2022-09-24T10:56:55.090Z,2.40
2022-09-24T10:59:41.317Z,2.35
2022-09-24T11:02:14.029Z,2.50
2022-09-24T11:04:51.560Z,2.80
2022-09-24T11:07:25.756Z,3.20
2022-09-24T11:10:23.862Z,2.85
2022-09-24T11:13:10.944Z,2.75
2022-09-24T11:16:09.469Z,2.63
2022-09-24T11:18:42.053Z,2.78
2022-09-24T11:21:27.960Z,2.95
2022-09-24T11:24:03.964Z,3.13
2022-09-24T11:26:52.942Z,3.17
2022-09-24T11:29:58.909Z,3.42
2022-09-24T11:33:15.110Z,2.60
2022-09-24T11:36:08.578Z,3.35
2022-09-24T11:39:01.280Z,3.35
2022-09-24T11:42:00.637Z,3.50
2022-09-24T11:45:02.351Z,3.03
2022-09-24T11:47:41.529Z,3.60
2022-09-24T11:50:38.306Z,3.65
2022-09-24T11:53:10.793Z,2.95
2022-09-24T11:55:53.434Z,2.85
2022-09-24T11:58:33.778Z,3.45
2022-09-24T12:01:32.477Z,3.20
2022-09-24T12:04:22.656Z,3.67
2022-09-24T12:07:02.913Z,3.20
2022-09-24T12:09:40.957Z,3.15
2022-09-24T12:12:12.820Z,2.50
2022-09-24T12:14:53.662Z,2.20
2022-09-24T12:17:34.235Z,2.90
2022-09-24T12:20:18.727Z,2.92
2022-09-24T12:22:51.795Z,2.95
2022-09-24T12:25:18.676Z,2.90
2022-09-24T12:27:46.207Z,2.55
2022-09-24T12:30:31.461Z,3.05
2022-09-24T12:32:59.543Z,2.28
2022-09-24T12:35:28.970Z,2.42
2022-09-24T12:38:04.323Z,2.75
2022-09-24T12:41:04.172Z,2.53
2022-09-24T12:43:37.748Z,2.28
2022-09-24T12:46:06.489Z,2.60
2022-09-24T12:48:44.667Z,2.80
2022-09-24T12:51:12.780Z,2.67
2022-09-24T12:53:42.469Z,2.28
2022-09-24T12:56:10.423Z,2.30
2022-09-24T12:58:43.348Z,2.90
2022-09-24T13:01:25.786Z,2.38
2022-09-24T13:04:06.536Z,2.70
2022-09-24T13:06:37.809Z,2.35
2022-09-24T13:09:26.051Z,2.10
2022-09-24T13:12:15.137Z,2.30
2022-09-24T13:14:47.504Z,2.55
2022-09-24T13:17:14.705Z,2.00
2022-09-24T13:19:44.370Z,2.30
2022-09-24T13:22:35.599Z,2.20
2022-09-24T13:25:08.685Z,1.80
2022-09-24T13:27:37.988Z,1.90
2022-09-24T13:30:26.789Z,1.90
2022-09-24T13:33:00.325Z,1.90
2022-09-24T13:35:31.797Z,1.70
2022-09-24T13:38:33.127Z,1.83
2022-09-24T13:41:20.287Z,1.70
2022-09-24T13:43:52.667Z,1.90
2022-09-24T13:46:20.997Z,2.25
2022-09-24T13:48:58.638Z,2.03
2022-09-24T13:51:30.374Z,1.92
2022-09-24T13:54:06.494Z,2.22
2022-09-24T13:56:33.566Z,1.83
2022-09-24T13:59:07.045Z,2.17
2022-09-24T14:01:40.548Z,2.70
2022-09-24T14:04:16.633Z,2.95
2022-09-24T14:06:50.794Z,2.75
2022-09-24T14:09:27.847Z,3.15
2022-09-24T14:11:59.557Z,2.35
2022-09-24T14:14:29.152Z,2.40
2022-09-24T14:17:09.563Z,2.88
2022-09-24T14:19:36.734Z,2.60
2022-09-24T14:22:06.018Z,3.75
2022-09-24T14:24:42.485Z,5.47
2022-09-24T14:27:15.715Z,2.85
2022-09-24T14:29:48.828Z,4.47
2022-09-24T14:32:23.206Z,4.38
2022-09-24T14:34:55.260Z,3.10
2022-09-24T14:37:31.310Z,4.40
2022-09-24T14:40:02.823Z,2.63
2022-09-24T14:42:42.098Z,2.45
2022-09-24T14:45:10.394Z,2.55
2022-09-24T14:47:37.648Z,2.17
2022-09-24T14:50:22.957Z,3.22
2022-09-24T14:52:56.941Z,2.88
2022-09-24T14:55:42.226Z,2.58
2022-09-24T14:58:28.028Z,2.45
2022-09-24T15:01:00.172Z,2.80
2022-09-24T15:03:50.222Z,2.30
2022-09-24T15:06:29.165Z,2.13
2022-09-24T15:09:01.330Z,1.98
2022-09-24T15:11:36.628Z,1.52
2022-09-24T15:14:16.887Z,6.85
2022-09-24T15:16:46.893Z,5.35
2022-09-24T15:19:16.893Z,5.82
2022-09-24T15:21:45.178Z,5.95
2022-09-24T15:24:12.182Z,4.28
2022-09-24T15:26:42.767Z,5.97
2022-09-24T15:29:19.037Z,9.50
2022-09-24T15:31:46.252Z,13.05
2022-09-24T15:34:17.723Z,9.38
2022-09-24T15:36:54.103Z,4.63
2022-09-24T15:39:21.564Z,3.33
2022-09-24T15:41:48.390Z,2.42
2022-09-24T15:44:31.315Z,3.78
2022-09-24T15:47:00.896Z,6.03
2022-09-24T15:49:27.702Z,7.10
2022-09-24T15:52:02.243Z,6.43
2022-09-24T15:54:29.350Z,2.88
2022-09-24T15:56:56.173Z,2.65
2022-09-24T15:59:23.569Z,2.92
2022-09-24T16:01:52.290Z,2.72
2022-09-24T16:04:19.227Z,2.58
2022-09-24T16:06:46.159Z,3.80
2022-09-24T16:09:13.235Z,4.80
2022-09-24T16:11:40.130Z,6.88
2022-09-24T16:14:07.516Z,6.65
2022-09-24T16:16:34.803Z,4.60
2022-09-24T16:19:01.917Z,3.03
2022-09-24T16:21:28.830Z,2.58
2022-09-24T16:23:56.711Z,3.00
2022-09-24T16:26:24.041Z,3.40
2022-09-24T16:28:51.748Z,3.40
2022-09-24T16:31:19.525Z,8.13
2022-09-24T16:33:47.032Z,5.50
2022-09-24T16:36:14.046Z,5.25
2022-09-24T17:39:13.356Z,10.38
2022-09-24T17:41:40.210Z,8.00
2022-09-24T17:44:07.310Z,4.78
2022-09-24T17:46:35.980Z,5.72
2022-09-24T17:49:03.257Z,13.48
2022-09-24T17:51:32.795Z,11.05
2022-09-24T17:54:02.153Z,13.20
2022-09-24T17:56:32.071Z,16.35
2022-09-24T17:58:59.904Z,7.15
2022-09-24T18:01:29.924Z,5.82
2022-09-24T18:03:58.413Z,7.80
2022-09-24T18:06:31.925Z,6.50
2022-09-24T18:09:00.580Z,10.07
2022-09-24T18:11:30.503Z,7.57
2022-09-24T18:13:59.495Z,9.43
2022-09-24T18:16:31.322Z,8.05
2022-09-24T18:18:59.863Z,4.20
2022-09-24T18:21:28.060Z,4.38
2022-09-24T18:23:56.605Z,6.63
2022-09-24T18:26:35.332Z,5.32
2022-09-24T18:29:06.176Z,3.78
2022-09-24T18:31:33.355Z,3.28
2022-09-24T18:34:05.937Z,2.63
2022-09-24T18:36:40.496Z,3.00
2022-09-24T18:39:11.643Z,3.03
2022-09-24T18:41:39.323Z,4.00
2022-09-24T18:44:06.433Z,3.47
2022-09-24T18:46:33.660Z,3.30
2022-09-24T18:49:02.142Z,3.10
2022-09-24T18:51:30.462Z,4.40
2022-09-24T18:54:06.015Z,5.13
2022-09-24T18:56:33.706Z,5.35
2022-09-24T18:59:08.587Z,5.32
2022-09-24T19:01:37.333Z,4.97
2022-09-24T19:04:05.454Z,4.72
2022-09-24T19:06:34.903Z,4.45
2022-09-24T19:09:02.002Z,3.83
2022-09-24T19:11:31.544Z,4.22
2022-09-24T19:13:59.449Z,3.50
2022-09-24T19:16:26.687Z,6.53
2022-09-24T19:18:54.180Z,16.15
2022-09-24T19:21:24.209Z,13.82
2022-09-24T19:23:56.310Z,15.60
2022-09-24T19:26:26.234Z,7.82
2022-09-24T19:28:53.294Z,8.40
2022-09-24T19:31:24.315Z,8.00
2022-09-24T19:33:52.827Z,6.82
2022-09-24T19:36:20.166Z,9.95
2022-09-24T19:38:47.658Z,14.23
2022-09-24T19:41:24.877Z,14.32
2022-09-24T19:43:53.553Z,11.55
2022-09-24T19:46:24.251Z,6.78
2022-09-24T19:48:52.009Z,11.52
2022-09-24T19:51:24.104Z,12.50
2022-09-24T19:53:53.431Z,5.80
2022-09-24T19:56:22.546Z,5.95
2022-09-24T19:58:53.421Z,5.40
2022-09-24T20:01:22.259Z,5.57
2022-09-24T20:03:49.620Z,5.00
2022-09-24T20:06:22.729Z,8.38
2022-09-24T20:08:50.197Z,8.63
2022-09-24T20:11:20.896Z,7.97
2022-09-24T20:13:49.363Z,6.30
2022-09-24T20:16:21.768Z,4.93
2022-09-24T20:18:50.391Z,4.25
2022-09-24T20:21:18.896Z,3.78
2022-09-24T20:23:47.412Z,5.55
2022-09-24T20:26:34.770Z,7.57
2022-09-24T20:29:02.821Z,6.30
2022-09-24T20:31:29.950Z,5.00
2022-09-24T20:33:56.940Z,4.10
2022-09-24T20:36:25.352Z,3.90
2022-09-24T20:38:52.865Z,5.78
2022-09-24T20:41:22.290Z,7.05
2022-09-24T20:43:49.845Z,6.05
2022-09-24T20:46:21.810Z,7.07
2022-09-24T20:48:49.002Z,6.43
2022-09-24T20:51:18.386Z,6.90
2022-09-24T20:53:46.610Z,6.88
2022-09-24T20:56:14.366Z,5.38
2022-09-24T20:58:41.613Z,10.75
2022-09-24T21:01:09.471Z,10.93
2022-09-24T21:03:45.954Z,10.43
2022-09-24T21:06:14.944Z,6.72
2022-09-24T21:08:44.353Z,7.03
2022-09-24T21:11:13.536Z,7.50
2022-09-24T21:13:43.004Z,5.15
2022-09-24T21:16:10.245Z,7.05
2022-09-24T21:18:44.950Z,6.72
2022-09-24T21:21:20.079Z,7.22
2022-09-24T21:23:49.754Z,6.68
2022-09-24T21:26:27.962Z,7.47
2022-09-24T21:29:18.447Z,6.07
2022-09-24T21:31:46.951Z,6.10
2022-09-24T21:34:16.256Z,5.50
2022-09-24T21:36:45.628Z,6.03
2022-09-24T21:39:23.418Z,6.25
2022-09-24T21:41:54.979Z,6.70
2022-09-24T21:44:22.414Z,6.18
2022-09-24T21:46:50.928Z,6.40
2022-09-24T21:49:19.461Z,6.55
2022-09-24T21:51:47.605Z,6.50
2022-09-24T21:54:17.254Z,6.05
2022-09-24T21:56:45.069Z,5.60
2022-09-24T21:59:30.779Z,5.65
2022-09-24T22:01:57.772Z,5.22
2022-09-24T22:04:25.001Z,5.95
2022-09-24T22:06:52.598Z,6.20
2022-09-24T22:09:20.010Z,6.25
2022-09-24T22:11:47.150Z,4.93
2022-09-24T22:14:14.466Z,8.52
2022-09-24T22:16:41.449Z,9.40
2022-09-24T22:19:09.411Z,27.10
2022-09-24T22:21:36.817Z,18.80
2022-09-24T22:24:04.921Z,9.68
2022-09-24T22:26:32.648Z,7.30
2022-09-24T22:29:00.143Z,5.68
2022-09-24T22:31:27.219Z,6.57
2022-09-24T22:34:13.347Z,7.13
2022-09-24T22:36:40.502Z,6.63
2022-09-24T22:39:07.915Z,6.05
2022-09-24T22:41:40.093Z,5.43
2022-09-24T22:44:07.302Z,5.80
2022-09-24T22:46:36.405Z,5.15
2022-09-24T22:49:04.904Z,4.65
2022-09-24T22:51:32.634Z,5.45
2022-09-24T22:54:00.343Z,6.40
2022-09-24T22:56:28.400Z,5.97
2022-09-24T22:59:00.171Z,5.70
2022-09-24T23:01:36.946Z,6.32
2022-09-24T23:04:03.897Z,6.65
2022-09-24T23:06:32.934Z,6.22
2022-09-24T23:09:00.261Z,6.50
2022-09-24T23:11:29.766Z,5.47
2022-09-24T23:14:02.711Z,6.50
2022-09-24T23:16:32.050Z,5.78
2022-09-24T23:19:01.070Z,6.10
2022-09-24T23:21:31.293Z,6.53
2022-09-24T23:24:03.586Z,5.47
2022-09-24T23:26:31.604Z,6.57
2022-09-24T23:28:59.838Z,5.32
2022-09-24T23:31:37.118Z,6.88
2022-09-24T23:34:06.747Z,5.95
2022-09-24T23:36:34.593Z,5.32
2022-09-24T23:39:01.642Z,5.20
2022-09-24T23:41:30.946Z,5.50
2022-09-24T23:43:58.538Z,5.15
2022-09-24T23:46:25.475Z,5.30
2022-09-24T23:48:52.622Z,5.20
2022-09-24T23:51:19.616Z,5.43
2022-09-24T23:53:46.494Z,5.85
2022-09-24T23:56:13.813Z,4.45
2022-09-24T23:58:42.432Z,5.43
